sensor_id;sensor_type;location;lat;lon;timestamp;pressure;altitude;pressure_sealevel;temperature
64916;BMP280;51427;-27.442;153.014;2023-11-18T00:00:10;101858.66;;;24.66
64916;BMP280;51427;-27.442;153.014;2023-11-18T00:02:43;101875.69;;;24.36
64916;BMP280;51427;-27.442;153.014;2023-11-18T00:05:11;101871.69;;;25.13
64916;BMP280;51427;-27.442;153.014;2023-11-18T00:07:40;101879.03;;;23.96
64916;BMP280;51427;-27.442;153.014;2023-11-18T00:10:08;101876.31;;;24.08
64916;BMP280;51427;-27.442;153.014;2023-11-18T00:12:37;101876.09;;;24.52
64916;BMP280;51427;-27.442;153.014;2023-11-18T00:15:09;101859.88;;;24.71
64916;BMP280;51427;-27.442;153.014;2023-11-18T00:17:38;101855.50;;;25.12
64916;BMP280;51427;-27.442;153.014;2023-11-18T00:20:06;101866.72;;;24.91
64916;BMP280;51427;-27.442;153.014;2023-11-18T00:22:39;101866.03;;;24.89
64916;BMP280;51427;-27.442;153.014;2023-11-18T00:25:08;101854.59;;;25.71
64916;BMP280;51427;-27.442;153.014;2023-11-18T00:27:36;101859.13;;;24.80
64916;BMP280;51427;-27.442;153.014;2023-11-18T00:30:07;101857.75;;;25.45
64916;BMP280;51427;-27.442;153.014;2023-11-18T00:32:40;101853.53;;;24.96
64916;BMP280;51427;-27.442;153.014;2023-11-18T00:35:08;101852.25;;;24.81
64916;BMP280;51427;-27.442;153.014;2023-11-18T00:37:38;101837.75;;;25.20
64916;BMP280;51427;-27.442;153.014;2023-11-18T00:40:07;101844.34;;;24.93
64916;BMP280;51427;-27.442;153.014;2023-11-18T00:42:35;101838.00;;;25.17
64916;BMP280;51427;-27.442;153.014;2023-11-18T00:45:02;101821.16;;;25.24
64916;BMP280;51427;-27.442;153.014;2023-11-18T00:47:30;101824.22;;;25.76
64916;BMP280;51427;-27.442;153.014;2023-11-18T00:49:57;101820.72;;;25.87
64916;BMP280;51427;-27.442;153.014;2023-11-18T00:52:28;101815.16;;;25.82
64916;BMP280;51427;-27.442;153.014;2023-11-18T00:54:55;101822.13;;;26.36
64916;BMP280;51427;-27.442;153.014;2023-11-18T00:57:22;101820.28;;;25.91
64916;BMP280;51427;-27.442;153.014;2023-11-18T00:59:49;101812.19;;;25.96
64916;BMP280;51427;-27.442;153.014;2023-11-18T01:02:16;101831.63;;;26.26
64916;BMP280;51427;-27.442;153.014;2023-11-18T01:04:45;101824.34;;;25.84
64916;BMP280;51427;-27.442;153.014;2023-11-18T01:07:12;101823.66;;;26.01
64916;BMP280;51427;-27.442;153.014;2023-11-18T01:09:39;101823.75;;;25.43
64916;BMP280;51427;-27.442;153.014;2023-11-18T01:12:07;101833.38;;;25.69
64916;BMP280;51427;-27.442;153.014;2023-11-18T01:14:39;101808.66;;;26.61
64916;BMP280;51427;-27.442;153.014;2023-11-18T01:17:08;101804.75;;;25.93
64916;BMP280;51427;-27.442;153.014;2023-11-18T01:19:36;101818.13;;;24.41
64916;BMP280;51427;-27.442;153.014;2023-11-18T01:22:03;101817.53;;;24.88
64916;BMP280;51427;-27.442;153.014;2023-11-18T01:24:33;101819.22;;;26.58
64916;BMP280;51427;-27.442;153.014;2023-11-18T01:27:01;101829.41;;;26.41
64916;BMP280;51427;-27.442;153.014;2023-11-18T01:29:28;101823.00;;;25.04
64916;BMP280;51427;-27.442;153.014;2023-11-18T01:31:56;101825.75;;;24.91
64916;BMP280;51427;-27.442;153.014;2023-11-18T01:34:23;101822.06;;;25.05
64916;BMP280;51427;-27.442;153.014;2023-11-18T01:36:50;101809.97;;;25.25
64916;BMP280;51427;-27.442;153.014;2023-11-18T01:39:18;101812.94;;;24.91
64916;BMP280;51427;-27.442;153.014;2023-11-18T01:41:45;101813.94;;;24.70
64916;BMP280;51427;-27.442;153.014;2023-11-18T01:44:13;101810.06;;;24.75
64916;BMP280;51427;-27.442;153.014;2023-11-18T01:46:41;101808.47;;;24.84
64916;BMP280;51427;-27.442;153.014;2023-11-18T01:49:12;101812.06;;;25.02
64916;BMP280;51427;-27.442;153.014;2023-11-18T01:51:46;101799.38;;;25.77
64916;BMP280;51427;-27.442;153.014;2023-11-18T01:54:15;101799.69;;;25.16
64916;BMP280;51427;-27.442;153.014;2023-11-18T01:56:49;101802.38;;;25.05
64916;BMP280;51427;-27.442;153.014;2023-11-18T01:59:18;101800.63;;;24.76
64916;BMP280;51427;-27.442;153.014;2023-11-18T02:01:51;101800.00;;;25.32
64916;BMP280;51427;-27.442;153.014;2023-11-18T02:04:20;101791.34;;;25.14
64916;BMP280;51427;-27.442;153.014;2023-11-18T02:06:51;101807.25;;;25.17
64916;BMP280;51427;-27.442;153.014;2023-11-18T02:09:20;101780.84;;;25.26
64916;BMP280;51427;-27.442;153.014;2023-11-18T02:14:32;101782.34;;;24.90
64916;BMP280;51427;-27.442;153.014;2023-11-18T02:17:03;101793.50;;;25.18
64916;BMP280;51427;-27.442;153.014;2023-11-18T02:19:31;101781.41;;;24.91
64916;BMP280;51427;-27.442;153.014;2023-11-18T02:22:01;101775.25;;;25.03
64916;BMP280;51427;-27.442;153.014;2023-11-18T02:24:30;101769.06;;;24.66
64916;BMP280;51427;-27.442;153.014;2023-11-18T02:27:00;101770.66;;;25.64
64916;BMP280;51427;-27.442;153.014;2023-11-18T02:29:32;101789.50;;;24.57
64916;BMP280;51427;-27.442;153.014;2023-11-18T02:34:58;101761.16;;;25.93
64916;BMP280;51427;-27.442;153.014;2023-11-18T02:37:28;101770.16;;;25.21
64916;BMP280;51427;-27.442;153.014;2023-11-18T02:40:04;101778.69;;;25.41
64916;BMP280;51427;-27.442;153.014;2023-11-18T02:42:44;101772.34;;;24.87
64916;BMP280;51427;-27.442;153.014;2023-11-18T02:45:14;101771.81;;;25.79
64916;BMP280;51427;-27.442;153.014;2023-11-18T02:47:46;101759.81;;;25.51
64916;BMP280;51427;-27.442;153.014;2023-11-18T02:50:14;101757.41;;;24.92
64916;BMP280;51427;-27.442;153.014;2023-11-18T02:52:42;101759.56;;;25.54
64916;BMP280;51427;-27.442;153.014;2023-11-18T02:55:10;101756.69;;;25.10
64916;BMP280;51427;-27.442;153.014;2023-11-18T02:57:39;101771.28;;;25.56
64916;BMP280;51427;-27.442;153.014;2023-11-18T03:00:06;101769.47;;;25.01
64916;BMP280;51427;-27.442;153.014;2023-11-18T03:02:51;101772.22;;;25.37
64916;BMP280;51427;-27.442;153.014;2023-11-18T03:05:18;101770.22;;;25.59
64916;BMP280;51427;-27.442;153.014;2023-11-18T03:07:47;101766.03;;;25.49
64916;BMP280;51427;-27.442;153.014;2023-11-18T03:10:20;101764.00;;;24.85
64916;BMP280;51427;-27.442;153.014;2023-11-18T03:12:49;101755.50;;;25.23
64916;BMP280;51427;-27.442;153.014;2023-11-18T03:15:16;101755.22;;;25.26
64916;BMP280;51427;-27.442;153.014;2023-11-18T03:17:47;101753.44;;;24.99
64916;BMP280;51427;-27.442;153.014;2023-11-18T03:20:21;101749.84;;;25.48
64916;BMP280;51427;-27.442;153.014;2023-11-18T03:22:50;101765.31;;;24.79
64916;BMP280;51427;-27.442;153.014;2023-11-18T03:25:18;101758.88;;;24.85
64916;BMP280;51427;-27.442;153.014;2023-11-18T03:27:48;101745.63;;;24.61
64916;BMP280;51427;-27.442;153.014;2023-11-18T03:30:15;101735.50;;;24.99
64916;BMP280;51427;-27.442;153.014;2023-11-18T03:32:43;101751.75;;;24.49
64916;BMP280;51427;-27.442;153.014;2023-11-18T03:35:10;101743.47;;;25.24
64916;BMP280;51427;-27.442;153.014;2023-11-18T03:37:41;101734.63;;;24.89
64916;BMP280;51427;-27.442;153.014;2023-11-18T03:40:13;101725.97;;;24.80
64916;BMP280;51427;-27.442;153.014;2023-11-18T03:42:41;101707.59;;;25.05
64916;BMP280;51427;-27.442;153.014;2023-11-18T03:45:09;101728.63;;;25.08
64916;BMP280;51427;-27.442;153.014;2023-11-18T03:47:36;101729.59;;;24.68
64916;BMP280;51427;-27.442;153.014;2023-11-18T03:50:04;101703.88;;;24.79
64916;BMP280;51427;-27.442;153.014;2023-11-18T03:52:31;101708.28;;;25.35
64916;BMP280;51427;-27.442;153.014;2023-11-18T03:55:02;101703.81;;;24.51
64916;BMP280;51427;-27.442;153.014;2023-11-18T03:57:29;101697.97;;;24.88
64916;BMP280;51427;-27.442;153.014;2023-11-18T03:59:57;101702.47;;;25.05
64916;BMP280;51427;-27.442;153.014;2023-11-18T04:02:24;101713.66;;;25.13
64916;BMP280;51427;-27.442;153.014;2023-11-18T04:04:51;101713.13;;;25.01
64916;BMP280;51427;-27.442;153.014;2023-11-18T04:07:19;101704.25;;;25.05
64916;BMP280;51427;-27.442;153.014;2023-11-18T04:09:48;101697.38;;;25.14
64916;BMP280;51427;-27.442;153.014;2023-11-18T04:12:15;101703.44;;;25.32
64916;BMP280;51427;-27.442;153.014;2023-11-18T04:14:42;101702.50;;;24.66
64916;BMP280;51427;-27.442;153.014;2023-11-18T04:17:09;101704.19;;;24.86
64916;BMP280;51427;-27.442;153.014;2023-11-18T04:19:36;101692.63;;;25.38
64916;BMP280;51427;-27.442;153.014;2023-11-18T04:22:05;101708.13;;;25.27
64916;BMP280;51427;-27.442;153.014;2023-11-18T04:24:33;101709.63;;;25.20
64916;BMP280;51427;-27.442;153.014;2023-11-18T04:27:01;101700.59;;;25.16
64916;BMP280;51427;-27.442;153.014;2023-11-18T04:29:28;101710.69;;;25.18
64916;BMP280;51427;-27.442;153.014;2023-11-18T04:31:56;101688.88;;;25.14
64916;BMP280;51427;-27.442;153.014;2023-11-18T04:34:23;101692.84;;;24.88
64916;BMP280;51427;-27.442;153.014;2023-11-18T04:36:51;101700.66;;;24.87
64916;BMP280;51427;-27.442;153.014;2023-11-18T04:39:18;101690.47;;;25.05
64916;BMP280;51427;-27.442;153.014;2023-11-18T04:41:47;101693.94;;;24.86
64916;BMP280;51427;-27.442;153.014;2023-11-18T04:44:14;101689.00;;;25.03
64916;BMP280;51427;-27.442;153.014;2023-11-18T04:46:42;101723.41;;;24.71
64916;BMP280;51427;-27.442;153.014;2023-11-18T04:49:11;101696.03;;;24.62
64916;BMP280;51427;-27.442;153.014;2023-11-18T04:51:38;101694.97;;;24.74
64916;BMP280;51427;-27.442;153.014;2023-11-18T04:54:08;101711.97;;;24.75
64916;BMP280;51427;-27.442;153.014;2023-11-18T04:56:37;101722.59;;;24.31
64916;BMP280;51427;-27.442;153.014;2023-11-18T04:59:04;101708.78;;;24.53
64916;BMP280;51427;-27.442;153.014;2023-11-18T05:01:32;101706.59;;;24.18
64916;BMP280;51427;-27.442;153.014;2023-11-18T05:04:00;101698.59;;;24.62
64916;BMP280;51427;-27.442;153.014;2023-11-18T05:06:27;101711.97;;;24.36
64916;BMP280;51427;-27.442;153.014;2023-11-18T05:08:54;101716.69;;;23.90
64916;BMP280;51427;-27.442;153.014;2023-11-18T05:11:21;101713.47;;;24.38
64916;BMP280;51427;-27.442;153.014;2023-11-18T05:13:48;101694.19;;;24.73
64916;BMP280;51427;-27.442;153.014;2023-11-18T05:16:16;101710.38;;;24.14
64916;BMP280;51427;-27.442;153.014;2023-11-18T05:18:43;101707.50;;;24.08
64916;BMP280;51427;-27.442;153.014;2023-11-18T05:21:10;101721.47;;;24.54
64916;BMP280;51427;-27.442;153.014;2023-11-18T05:23:37;101713.63;;;24.46
64916;BMP280;51427;-27.442;153.014;2023-11-18T05:26:05;101715.03;;;24.30
64916;BMP280;51427;-27.442;153.014;2023-11-18T05:28:32;101714.44;;;24.26
64916;BMP280;51427;-27.442;153.014;2023-11-18T05:31:00;101705.97;;;24.26
64916;BMP280;51427;-27.442;153.014;2023-11-18T05:33:31;101725.78;;;24.04
64916;BMP280;51427;-27.442;153.014;2023-11-18T05:36:00;101724.22;;;23.92
64916;BMP280;51427;-27.442;153.014;2023-11-18T05:38:31;101708.03;;;24.61
64916;BMP280;51427;-27.442;153.014;2023-11-18T05:41:01;101727.91;;;24.88
64916;BMP280;51427;-27.442;153.014;2023-11-18T05:43:31;101723.97;;;23.95
64916;BMP280;51427;-27.442;153.014;2023-11-18T05:46:06;101726.09;;;23.90
64916;BMP280;51427;-27.442;153.014;2023-11-18T05:48:51;101731.63;;;24.35
64916;BMP280;51427;-27.442;153.014;2023-11-18T05:51:21;101736.09;;;23.93
64916;BMP280;51427;-27.442;153.014;2023-11-18T05:53:48;101735.59;;;23.99
64916;BMP280;51427;-27.442;153.014;2023-11-18T05:56:17;101743.31;;;23.88
64916;BMP280;51427;-27.442;153.014;2023-11-18T05:58:44;101742.59;;;24.06
64916;BMP280;51427;-27.442;153.014;2023-11-18T06:01:12;101736.38;;;24.40
64916;BMP280;51427;-27.442;153.014;2023-11-18T06:03:43;101745.16;;;23.86
64916;BMP280;51427;-27.442;153.014;2023-11-18T06:06:13;101752.66;;;23.78
64916;BMP280;51427;-27.442;153.014;2023-11-18T06:08:42;101767.56;;;23.62
64916;BMP280;51427;-27.442;153.014;2023-11-18T06:11:10;101748.56;;;23.66
64916;BMP280;51427;-27.442;153.014;2023-11-18T06:13:51;101753.44;;;23.78
64916;BMP280;51427;-27.442;153.014;2023-11-18T06:16:23;101747.47;;;23.68
64916;BMP280;51427;-27.442;153.014;2023-11-18T06:18:52;101753.09;;;23.83
64916;BMP280;51427;-27.442;153.014;2023-11-18T06:21:24;101762.50;;;23.82
64916;BMP280;51427;-27.442;153.014;2023-11-18T06:23:54;101764.56;;;23.68
64916;BMP280;51427;-27.442;153.014;2023-11-18T06:26:21;101757.66;;;23.79
64916;BMP280;51427;-27.442;153.014;2023-11-18T06:28:49;101763.44;;;23.81
64916;BMP280;51427;-27.442;153.014;2023-11-18T06:31:16;101776.69;;;23.55
64916;BMP280;51427;-27.442;153.014;2023-11-18T06:33:45;101771.06;;;23.61
64916;BMP280;51427;-27.442;153.014;2023-11-18T06:38:46;101775.69;;;23.36
64916;BMP280;51427;-27.442;153.014;2023-11-18T06:41:17;101779.00;;;23.47
64916;BMP280;51427;-27.442;153.014;2023-11-18T06:43:46;101789.53;;;23.75
64916;BMP280;51427;-27.442;153.014;2023-11-18T06:46:29;101781.50;;;23.58
64916;BMP280;51427;-27.442;153.014;2023-11-18T06:49:06;101789.72;;;23.41
64916;BMP280;51427;-27.442;153.014;2023-11-18T06:51:35;101781.28;;;23.61
64916;BMP280;51427;-27.442;153.014;2023-11-18T06:54:05;101778.56;;;23.42
64916;BMP280;51427;-27.442;153.014;2023-11-18T06:56:37;101791.00;;;23.36
64916;BMP280;51427;-27.442;153.014;2023-11-18T06:59:05;101809.47;;;23.28
64916;BMP280;51427;-27.442;153.014;2023-11-18T07:01:36;101806.25;;;23.26
64916;BMP280;51427;-27.442;153.014;2023-11-18T07:04:04;101802.28;;;23.33
64916;BMP280;51427;-27.442;153.014;2023-11-18T07:06:35;101793.75;;;23.44
64916;BMP280;51427;-27.442;153.014;2023-11-18T07:09:05;101802.34;;;23.12
64916;BMP280;51427;-27.442;153.014;2023-11-18T07:11:52;101813.69;;;23.19
64916;BMP280;51427;-27.442;153.014;2023-11-18T07:14:22;101817.53;;;23.02
64916;BMP280;51427;-27.442;153.014;2023-11-18T07:16:49;101810.56;;;23.15
64916;BMP280;51427;-27.442;153.014;2023-11-18T07:19:16;101821.16;;;23.00
64916;BMP280;51427;-27.442;153.014;2023-11-18T07:21:49;101821.25;;;22.98
64916;BMP280;51427;-27.442;153.014;2023-11-18T07:24:16;101828.22;;;22.96
64916;BMP280;51427;-27.442;153.014;2023-11-18T07:26:44;101830.91;;;22.95
64916;BMP280;51427;-27.442;153.014;2023-11-18T07:29:11;101831.34;;;23.00
64916;BMP280;51427;-27.442;153.014;2023-11-18T07:31:39;101839.31;;;22.84
64916;BMP280;51427;-27.442;153.014;2023-11-18T07:34:10;101836.66;;;22.75
64916;BMP280;51427;-27.442;153.014;2023-11-18T07:36:37;101840.34;;;22.71
64916;BMP280;51427;-27.442;153.014;2023-11-18T07:39:04;101846.63;;;22.67
64916;BMP280;51427;-27.442;153.014;2023-11-18T07:41:42;101854.84;;;22.60
64916;BMP280;51427;-27.442;153.014;2023-11-18T07:44:09;101852.97;;;22.62
64916;BMP280;51427;-27.442;153.014;2023-11-18T07:46:39;101854.72;;;22.61
64916;BMP280;51427;-27.442;153.014;2023-11-18T07:49:08;101860.63;;;22.51
64916;BMP280;51427;-27.442;153.014;2023-11-18T07:51:36;101867.44;;;22.39
64916;BMP280;51427;-27.442;153.014;2023-11-18T07:54:03;101868.59;;;22.35
64916;BMP280;51427;-27.442;153.014;2023-11-18T07:56:30;101878.09;;;22.33
64916;BMP280;51427;-27.442;153.014;2023-11-18T07:58:58;101882.28;;;22.34
64916;BMP280;51427;-27.442;153.014;2023-11-18T08:01:25;101888.06;;;22.36
64916;BMP280;51427;-27.442;153.014;2023-11-18T08:03:53;101893.25;;;22.24
64916;BMP280;51427;-27.442;153.014;2023-11-18T08:06:20;101896.97;;;22.20
64916;BMP280;51427;-27.442;153.014;2023-11-18T08:08:48;101901.53;;;22.15
64916;BMP280;51427;-27.442;153.014;2023-11-18T08:11:15;101913.47;;;22.15
64916;BMP280;51427;-27.442;153.014;2023-11-18T08:13:43;101930.03;;;22.09
64916;BMP280;51427;-27.442;153.014;2023-11-18T08:16:10;101934.41;;;22.07
64916;BMP280;51427;-27.442;153.014;2023-11-18T08:18:39;101946.94;;;22.10
64916;BMP280;51427;-27.442;153.014;2023-11-18T08:21:06;101949.81;;;22.06
64916;BMP280;51427;-27.442;153.014;2023-11-18T08:23:33;101941.66;;;22.01
64916;BMP280;51427;-27.442;153.014;2023-11-18T08:26:02;101927.44;;;21.98
64916;BMP280;51427;-27.442;153.014;2023-11-18T08:28:30;101929.25;;;21.96
64916;BMP280;51427;-27.442;153.014;2023-11-18T08:30:57;101935.41;;;21.94
64916;BMP280;51427;-27.442;153.014;2023-11-18T08:33:24;101931.41;;;21.90
64916;BMP280;51427;-27.442;153.014;2023-11-18T08:35:52;101928.38;;;21.85
64916;BMP280;51427;-27.442;153.014;2023-11-18T08:38:19;101920.03;;;21.83
64916;BMP280;51427;-27.442;153.014;2023-11-18T08:40:46;101926.63;;;21.85
64916;BMP280;51427;-27.442;153.014;2023-11-18T08:43:14;101929.63;;;21.80
64916;BMP280;51427;-27.442;153.014;2023-11-18T08:45:42;101931.13;;;21.82
64916;BMP280;51427;-27.442;153.014;2023-11-18T08:48:10;101923.50;;;21.82
64916;BMP280;51427;-27.442;153.014;2023-11-18T08:50:38;101928.09;;;21.77
64916;BMP280;51427;-27.442;153.014;2023-11-18T08:53:09;101921.59;;;21.73
64916;BMP280;51427;-27.442;153.014;2023-11-18T08:55:38;101922.53;;;21.72
64916;BMP280;51427;-27.442;153.014;2023-11-18T08:58:12;101923.53;;;21.70
64916;BMP280;51427;-27.442;153.014;2023-11-18T09:01:08;101914.69;;;21.63
64916;BMP280;51427;-27.442;153.014;2023-11-18T09:03:41;101920.59;;;21.63
64916;BMP280;51427;-27.442;153.014;2023-11-18T09:06:29;101918.38;;;21.59
64916;BMP280;51427;-27.442;153.014;2023-11-18T09:08:56;101940.50;;;21.58
64916;BMP280;51427;-27.442;153.014;2023-11-18T09:11:24;101946.59;;;21.56
64916;BMP280;51427;-27.442;153.014;2023-11-18T09:13:58;101944.88;;;21.56
64916;BMP280;51427;-27.442;153.014;2023-11-18T09:16:26;101950.19;;;21.53
64916;BMP280;51427;-27.442;153.014;2023-11-18T09:18:59;101961.00;;;21.44
64916;BMP280;51427;-27.442;153.014;2023-11-18T09:21:28;101964.03;;;21.49
64916;BMP280;51427;-27.442;153.014;2023-11-18T09:23:59;101960.16;;;21.44
64916;BMP280;51427;-27.442;153.014;2023-11-18T09:26:31;101956.28;;;21.38
64916;BMP280;51427;-27.442;153.014;2023-11-18T09:28:58;101956.28;;;21.38
64916;BMP280;51427;-27.442;153.014;2023-11-18T09:31:27;101965.06;;;21.35
64916;BMP280;51427;-27.442;153.014;2023-11-18T09:33:55;101974.22;;;21.37
64916;BMP280;51427;-27.442;153.014;2023-11-18T09:36:23;101978.50;;;21.36
64916;BMP280;51427;-27.442;153.014;2023-11-18T09:38:54;101979.50;;;21.34
64916;BMP280;51427;-27.442;153.014;2023-11-18T09:41:23;101971.97;;;21.33
64916;BMP280;51427;-27.442;153.014;2023-11-18T09:43:53;101977.25;;;21.30
64916;BMP280;51427;-27.442;153.014;2023-11-18T09:46:24;101981.75;;;21.26
64916;BMP280;51427;-27.442;153.014;2023-11-18T09:49:01;101981.03;;;21.24
64916;BMP280;51427;-27.442;153.014;2023-11-18T09:51:42;101985.19;;;21.25
64916;BMP280;51427;-27.442;153.014;2023-11-18T09:54:22;101976.06;;;21.23
64916;BMP280;51427;-27.442;153.014;2023-11-18T09:57:08;101975.94;;;21.24
64916;BMP280;51427;-27.442;153.014;2023-11-18T09:59:48;101966.97;;;21.19
64916;BMP280;51427;-27.442;153.014;2023-11-18T10:02:23;101971.16;;;21.20
64916;BMP280;51427;-27.442;153.014;2023-11-18T10:04:51;101973.22;;;21.15
64916;BMP280;51427;-27.442;153.014;2023-11-18T10:07:27;101985.00;;;21.16
64916;BMP280;51427;-27.442;153.014;2023-11-18T10:09:58;101979.81;;;21.17
64916;BMP280;51427;-27.442;153.014;2023-11-18T10:12:28;101978.28;;;21.15
64916;BMP280;51427;-27.442;153.014;2023-11-18T10:14:56;101979.31;;;21.12
64916;BMP280;51427;-27.442;153.014;2023-11-18T10:17:25;101971.97;;;21.08
64916;BMP280;51427;-27.442;153.014;2023-11-18T10:24:56;101993.47;;;21.04
64916;BMP280;51427;-27.442;153.014;2023-11-18T10:27:27;101991.81;;;21.03
64916;BMP280;51427;-27.442;153.014;2023-11-18T10:30:02;101987.66;;;21.02
64916;BMP280;51427;-27.442;153.014;2023-11-18T10:32:29;101996.19;;;21.01
64916;BMP280;51427;-27.442;153.014;2023-11-18T10:35:03;101998.75;;;21.01
64916;BMP280;51427;-27.442;153.014;2023-11-18T10:37:36;102006.59;;;20.98
64916;BMP280;51427;-27.442;153.014;2023-11-18T10:40:09;101999.66;;;21.00
64916;BMP280;51427;-27.442;153.014;2023-11-18T10:42:40;102007.38;;;20.98
64916;BMP280;51427;-27.442;153.014;2023-11-18T10:45:09;102015.31;;;20.94
64916;BMP280;51427;-27.442;153.014;2023-11-18T10:47:42;102022.03;;;20.95
64916;BMP280;51427;-27.442;153.014;2023-11-18T10:50:10;102010.44;;;20.91
64916;BMP280;51427;-27.442;153.014;2023-11-18T10:52:37;102002.38;;;20.85
64916;BMP280;51427;-27.442;153.014;2023-11-18T10:55:07;101997.72;;;20.91
64916;BMP280;51427;-27.442;153.014;2023-11-18T10:57:37;101991.91;;;20.89
64916;BMP280;51427;-27.442;153.014;2023-11-18T11:00:06;101996.00;;;20.91
64916;BMP280;51427;-27.442;153.014;2023-11-18T11:02:45;101990.28;;;20.88
64916;BMP280;51427;-27.442;153.014;2023-11-18T11:05:42;101989.88;;;20.94
64916;BMP280;51427;-27.442;153.014;2023-11-18T11:08:14;101991.28;;;20.86
64916;BMP280;51427;-27.442;153.014;2023-11-18T11:10:43;101983.66;;;20.86
64916;BMP280;51427;-27.442;153.014;2023-11-18T11:13:11;101989.34;;;20.89
64916;BMP280;51427;-27.442;153.014;2023-11-18T11:15:43;101979.66;;;20.82
64916;BMP280;51427;-27.442;153.014;2023-11-18T11:18:21;101990.69;;;20.82
64916;BMP280;51427;-27.442;153.014;2023-11-18T11:21:16;101987.53;;;20.79
64916;BMP280;51427;-27.442;153.014;2023-11-18T11:23:57;101985.78;;;20.79
64916;BMP280;51427;-27.442;153.014;2023-11-18T11:26:34;101989.25;;;20.78
64916;BMP280;51427;-27.442;153.014;2023-11-18T11:31:52;101969.63;;;20.80
64916;BMP280;51427;-27.442;153.014;2023-11-18T11:34:26;101978.06;;;20.81
64916;BMP280;51427;-27.442;153.014;2023-11-18T11:36:54;101978.34;;;20.76
64916;BMP280;51427;-27.442;153.014;2023-11-18T11:39:23;101971.72;;;20.74
64916;BMP280;51427;-27.442;153.014;2023-11-18T11:41:57;101971.63;;;20.75
64916;BMP280;51427;-27.442;153.014;2023-11-18T11:44:25;101977.97;;;20.82
64916;BMP280;51427;-27.442;153.014;2023-11-18T11:47:00;101988.53;;;20.76
64916;BMP280;51427;-27.442;153.014;2023-11-18T11:49:34;101993.09;;;20.71
64916;BMP280;51427;-27.442;153.014;2023-11-18T11:52:32;102002.44;;;20.71
64916;BMP280;51427;-27.442;153.014;2023-11-18T11:55:12;102004.59;;;20.77
64916;BMP280;51427;-27.442;153.014;2023-11-18T11:57:42;102003.47;;;20.68
64916;BMP280;51427;-27.442;153.014;2023-11-18T12:00:20;102004.28;;;20.69
64916;BMP280;51427;-27.442;153.014;2023-11-18T12:02:53;102000.47;;;20.62
64916;BMP280;51427;-27.442;153.014;2023-11-18T12:05:27;101996.91;;;20.64
64916;BMP280;51427;-27.442;153.014;2023-11-18T12:08:00;101984.97;;;20.66
64916;BMP280;51427;-27.442;153.014;2023-11-18T12:10:34;101981.84;;;20.61
64916;BMP280;51427;-27.442;153.014;2023-11-18T12:13:09;101981.84;;;20.61
64916;BMP280;51427;-27.442;153.014;2023-11-18T12:15:51;101986.13;;;20.61
64916;BMP280;51427;-27.442;153.014;2023-11-18T12:18:25;101987.66;;;20.63
64916;BMP280;51427;-27.442;153.014;2023-11-18T12:20:53;101982.22;;;20.69
64916;BMP280;51427;-27.442;153.014;2023-11-18T12:23:22;101980.75;;;20.65
64916;BMP280;51427;-27.442;153.014;2023-11-18T12:25:51;101973.84;;;20.67
64916;BMP280;51427;-27.442;153.014;2023-11-18T12:28:30;101973.31;;;20.62
64916;BMP280;51427;-27.442;153.014;2023-11-18T12:31:05;101968.94;;;20.64
64916;BMP280;51427;-27.442;153.014;2023-11-18T12:48:22;101964.84;;;20.49
64916;BMP280;51427;-27.442;153.014;2023-11-18T12:50:56;101975.72;;;20.51
64916;BMP280;51427;-27.442;153.014;2023-11-18T12:53:27;101972.28;;;20.52
64916;BMP280;51427;-27.442;153.014;2023-11-18T12:55:55;101974.81;;;20.52
64916;BMP280;51427;-27.442;153.014;2023-11-18T12:58:25;101973.84;;;20.67
64916;BMP280;51427;-27.442;153.014;2023-11-18T13:00:53;101973.50;;;20.59
64916;BMP280;51427;-27.442;153.014;2023-11-18T13:03:20;101981.84;;;20.61
64916;BMP280;51427;-27.442;153.014;2023-11-18T13:05:50;101977.16;;;20.55
64916;BMP280;51427;-27.442;153.014;2023-11-18T13:08:18;101975.00;;;20.49
64916;BMP280;51427;-27.442;153.014;2023-11-18T13:10:49;101974.63;;;20.55
64916;BMP280;51427;-27.442;153.014;2023-11-18T13:13:17;101981.00;;;20.48
64916;BMP280;51427;-27.442;153.014;2023-11-18T13:15:47;101980.03;;;20.63
64916;BMP280;51427;-27.442;153.014;2023-11-18T13:18:20;101975.44;;;20.56
64916;BMP280;51427;-27.442;153.014;2023-11-18T13:20:57;101983.06;;;20.56
64916;BMP280;51427;-27.442;153.014;2023-11-18T13:23:28;101966.84;;;20.44
64916;BMP280;51427;-27.442;153.014;2023-11-18T13:25:58;101957.81;;;20.53
64916;BMP280;51427;-27.442;153.014;2023-11-18T13:28:32;101952.41;;;20.45
64916;BMP280;51427;-27.442;153.014;2023-11-18T13:31:00;101948.00;;;20.35
64916;BMP280;51427;-27.442;153.014;2023-11-18T13:33:28;101952.00;;;20.39
64916;BMP280;51427;-27.442;153.014;2023-11-18T13:35:55;101959.38;;;20.29
64916;BMP280;51427;-27.442;153.014;2023-11-18T13:38:25;101951.66;;;20.31
64916;BMP280;51427;-27.442;153.014;2023-11-18T13:40:53;101962.53;;;20.06
64916;BMP280;51427;-27.442;153.014;2023-11-18T13:43:20;101966.97;;;20.17
64916;BMP280;51427;-27.442;153.014;2023-11-18T13:45:52;101954.44;;;20.14
64916;BMP280;51427;-27.442;153.014;2023-11-18T13:48:24;101963.84;;;20.26
64916;BMP280;51427;-27.442;153.014;2023-11-18T13:50:55;101960.47;;;20.25
64916;BMP280;51427;-27.442;153.014;2023-11-18T13:53:36;101963.19;;;20.22
64916;BMP280;51427;-27.442;153.014;2023-11-18T13:56:05;101954.78;;;20.22
64916;BMP280;51427;-27.442;153.014;2023-11-18T13:58:33;101951.53;;;20.20
64916;BMP280;51427;-27.442;153.014;2023-11-18T14:01:00;101943.47;;;20.13
64916;BMP280;51427;-27.442;153.014;2023-11-18T14:03:28;101934.09;;;20.14
64916;BMP280;51427;-27.442;153.014;2023-11-18T14:05:58;101927.75;;;20.07
64916;BMP280;51427;-27.442;153.014;2023-11-18T14:08:29;101923.75;;;19.91